Time;durP1;ratioP1;P1;durP2;ratioP2;P2;SDS_P1;SDS_P2;PMS_P1;PMS_P2;Temp;Humidity;BMP_temperature;BMP_pressure;BME280_temperature;BME280_humidity;BME280_pressure;Samples;Min_cycle;Max_cycle;Signal;HPM_P1;HPM_P2
2021/12/15 00:01:48;;;;;;;73.32;37.20;;;10.30;99.90;;;;;;5089133;28;20159;-84
2021/12/15 00:04:15;;;;;;;64.82;35.53;;;10.30;99.90;;;;;;5055671;28;20024;-83
2021/12/15 00:06:42;;;;;;;73.22;37.65;;;10.20;99.90;;;;;;5055475;28;20103;-83
2021/12/15 00:09:11;;;;;;;79.40;38.88;;;10.20;99.90;;;;;;5072463;28;20024;-83
2021/12/15 00:11:38;;;;;;;81.90;40.17;;;10.20;99.90;;;;;;5055458;28;20540;-83
2021/12/15 00:14:16;;;;;;;74.97;39.00;;;10.20;99.90;;;;;;5055675;28;20028;-83
2021/12/15 00:16:42;;;;;;;79.40;39.47;;;10.20;99.90;;;;;;5055784;28;20031;-84
2021/12/15 00:19:08;;;;;;;80.85;38.70;;;10.20;99.90;;;;;;5072298;28;20052;-83
2021/12/15 00:21:35;;;;;;;70.57;36.92;;;10.20;99.90;;;;;;5088720;28;20072;-83
2021/12/15 00:24:03;;;;;;;78.43;39.25;;;10.20;99.90;;;;;;5089303;28;20074;-84
2021/12/15 00:26:28;;;;;;;74.18;38.55;;;10.20;99.90;;;;;;5071586;28;20469;-84
2021/12/15 00:28:54;;;;;;;81.13;36.90;;;10.10;99.90;;;;;;5054669;28;20064;-84
2021/12/15 00:31:22;;;;;;;85.53;40.90;;;10.20;99.90;;;;;;5072142;28;20099;-84
2021/12/15 00:33:48;;;;;;;81.97;39.08;;;10.20;99.90;;;;;;5073433;28;20028;-84
2021/12/15 00:36:15;;;;;;;88.15;39.78;;;10.20;99.90;;;;;;5088770;28;20465;-84
2021/12/15 00:38:42;;;;;;;77.13;39.92;;;10.20;99.90;;;;;;5088868;28;20077;-84
2021/12/15 00:41:08;;;;;;;80.32;40.28;;;10.20;99.90;;;;;;5055412;28;20049;-84
2021/12/15 00:43:34;;;;;;;69.68;36.80;;;10.10;99.90;;;;;;5054993;28;20122;-84
2021/12/15 00:46:00;;;;;;;75.20;38.10;;;10.20;99.90;;;;;;5072108;28;20086;-84
2021/12/15 00:48:27;;;;;;;82.28;39.00;;;10.10;99.90;;;;;;5073557;28;20066;-83
2021/12/15 00:50:52;;;;;;;88.25;40.45;;;10.10;99.90;;;;;;5072080;28;20025;-84
2021/12/15 00:53:18;;;;;;;69.75;37.72;;;10.10;99.90;;;;;;5073183;28;20024;-84
2021/12/15 00:55:45;;;;;;;80.50;39.20;;;10.10;99.90;;;;;;5055377;28;20102;-84
2021/12/15 00:58:12;;;;;;;85.22;40.80;;;10.10;99.90;;;;;;5055016;28;20465;-83
2021/12/15 01:00:52;;;;;;;83.85;39.60;;;10.10;99.90;;;;;;5054906;28;20070;-84
2021/12/15 01:03:18;;;;;;;90.15;40.70;;;10.20;99.90;;;;;;5054613;28;20047;-83
2021/12/15 01:05:47;;;;;;;81.90;38.92;;;10.20;99.90;;;;;;5071762;28;20028;-85
2021/12/15 01:08:18;;;;;;;81.10;39.25;;;10.20;99.90;;;;;;5088671;28;20027;-84
2021/12/15 01:21:30;;;;;;;87.03;40.28;;;10.10;99.90;;;;;;5086536;28;20111;-84
2021/12/15 01:23:55;;;;;;;92.60;41.25;;;10.10;99.90;;;;;;5072919;28;20032;-84
2021/12/15 01:26:21;;;;;;;97.88;43.17;;;10.10;99.90;;;;;;5072725;28;20155;-84
2021/12/15 01:28:47;;;;;;;84.55;41.90;;;10.10;99.90;;;;;;5088704;28;20124;-84
2021/12/15 01:31:12;;;;;;;84.70;41.15;;;10.10;99.90;;;;;;5071564;28;20456;-84
2021/12/15 01:33:40;;;;;;;83.03;39.50;;;10.10;99.90;;;;;;5071614;28;20169;-84
2021/12/15 01:36:07;;;;;;;81.97;40.38;;;10.10;99.90;;;;;;5088694;28;20033;-83
2021/12/15 01:38:36;;;;;;;92.78;41.63;;;10.10;99.90;;;;;;5088766;28;20060;-83
2021/12/15 01:41:02;;;;;;;87.07;40.60;;;10.10;99.90;;;;;;5077532;28;20024;-84
2021/12/15 01:43:48;;;;;;;86.90;39.72;;;10.10;99.90;;;;;;5093619;28;20032;-85
2021/12/15 01:49:11;;;;;;;97.63;42.20;;;10.10;99.90;;;;;;5094109;28;20102;-85
2021/12/15 01:51:37;;;;;;;90.55;41.55;;;10.10;99.90;;;;;;5075765;28;20032;-84
2021/12/15 01:54:04;;;;;;;89.15;40.92;;;10.10;99.90;;;;;;5075319;28;20025;-84
2021/12/15 01:56:30;;;;;;;88.88;40.35;;;10.20;99.90;;;;;;5080845;28;20029;-85
2021/12/15 01:58:57;;;;;;;89.45;40.08;;;10.10;99.90;;;;;;5091454;28;20024;-83
2021/12/15 02:01:24;;;;;;;90.88;41.15;;;10.20;99.90;;;;;;5072396;28;20025;-85
2021/12/15 02:03:49;;;;;;;93.00;41.63;;;10.20;99.90;;;;;;5072242;28;20033;-84
2021/12/15 02:06:16;;;;;;;84.40;38.72;;;10.20;99.90;;;;;;5056039;28;20086;-84
2021/12/15 02:08:42;;;;;;;87.90;39.50;;;10.20;99.90;;;;;;5057842;28;20120;-85
2021/12/15 02:11:09;;;;;;;92.55;39.83;;;10.20;99.90;;;;;;5074215;28;20028;-85
2021/12/15 02:13:34;;;;;;;83.22;39.90;;;10.20;99.90;;;;;;5074260;28;20058;-84
2021/12/15 02:16:04;;;;;;;93.72;40.10;;;10.20;99.90;;;;;;5090809;28;20514;-84
2021/12/15 02:18:33;;;;;;;75.95;38.00;;;10.20;99.90;;;;;;5057697;28;20024;-84
2021/12/15 02:21:03;;;;;;;78.18;36.45;;;10.20;99.90;;;;;;5073958;28;20449;-84
2021/12/15 02:23:40;;;;;;;71.43;35.37;;;10.30;99.90;;;;;;5057629;28;20116;-84
2021/12/15 02:26:14;;;;;;;76.53;37.35;;;10.20;99.90;;;;;;5075447;28;20032;-85
2021/12/15 02:28:46;;;;;;;77.25;36.90;;;10.20;99.90;;;;;;5091250;28;20465;-84
2021/12/15 02:33:57;;;;;;;67.82;36.78;;;10.20;99.90;;;;;;5089694;28;20123;-84
2021/12/15 02:39:08;;;;;;;73.90;37.03;;;10.20;99.90;;;;;;5060313;28;20101;-84
2021/12/15 02:41:35;;;;;;;68.88;35.28;;;10.20;99.90;;;;;;5057408;28;20055;-84
2021/12/15 02:44:06;;;;;;;76.55;35.25;;;10.20;99.90;;;;;;5040448;28;20048;-84
2021/12/15 02:46:34;;;;;;;76.03;36.88;;;10.20;99.90;;;;;;5090548;28;20016;-84
2021/12/15 02:49:00;;;;;;;71.63;35.10;;;10.10;99.90;;;;;;5075273;28;20028;-84
2021/12/15 02:51:27;;;;;;;73.40;34.65;;;10.20;99.90;;;;;;5057064;28;20020;-84
2021/12/15 02:53:54;;;;;;;65.95;35.28;;;10.20;99.90;;;;;;5040714;28;20033;-84
2021/12/15 02:56:20;;;;;;;66.45;33.78;;;10.10;99.90;;;;;;5057325;28;20051;-84
2021/12/15 02:58:52;;;;;;;65.22;34.20;;;10.10;99.90;;;;;;5057072;28;20461;-85
2021/12/15 03:01:30;;;;;;;70.82;34.03;;;10.20;99.90;;;;;;5057024;28;20017;-84
2021/12/15 03:04:28;;;;;;;70.72;34.63;;;10.20;99.90;;;;;;5058857;28;20056;-84
2021/12/15 03:06:56;;;;;;;75.60;35.25;;;10.20;99.90;;;;;;5073242;28;20028;-88
2021/12/15 03:17:35;;;;;;;70.55;33.88;;;10.20;99.90;;;;;;5074438;28;20054;-84
2021/12/15 03:20:01;;;;;;;72.90;35.20;;;10.20;99.90;;;;;;5056563;28;20476;-84
2021/12/15 03:22:27;;;;;;;75.53;35.28;;;10.20;99.90;;;;;;5040091;28;20044;-84
2021/12/15 03:24:52;;;;;;;71.85;34.83;;;10.20;99.90;;;;;;5056353;28;20362;-85
2021/12/15 03:27:24;;;;;;;76.35;35.65;;;10.20;99.90;;;;;;5039946;28;20031;-85
2021/12/15 03:35:34;;;;;;;71.70;34.25;;;10.20;99.90;;;;;;5059402;28;20500;-84
2021/12/15 03:38:00;;;;;;;73.32;34.53;;;10.20;99.90;;;;;;5056383;28;20059;-84
2021/12/15 03:40:36;;;;;;;72.50;36.17;;;10.20;99.90;;;;;;5023345;28;20455;-84
2021/12/15 03:43:07;;;;;;;78.95;35.58;;;10.20;99.90;;;;;;5055852;28;20485;-84
2021/12/15 03:45:38;;;;;;;72.07;35.33;;;10.20;99.90;;;;;;5072792;28;20028;-84
2021/12/15 03:48:11;;;;;;;74.38;34.53;;;10.20;99.90;;;;;;5055974;28;20028;-84
2021/12/15 03:50:37;;;;;;;72.68;34.67;;;10.20;99.90;;;;;;5056214;28;20031;-84
2021/12/15 03:53:04;;;;;;;72.38;34.63;;;10.20;99.90;;;;;;5039558;28;20055;-84
2021/12/15 03:55:33;;;;;;;69.80;33.92;;;10.20;99.90;;;;;;5073746;28;20020;-84
2021/12/15 03:58:01;;;;;;;65.18;33.78;;;10.20;99.90;;;;;;5055910;28;20017;-85
2021/12/15 04:00:28;;;;;;;76.43;34.63;;;10.20;99.90;;;;;;5074000;28;20062;-84
2021/12/15 04:02:54;;;;;;;77.97;34.92;;;10.10;99.90;;;;;;5039125;28;20123;-84
2021/12/15 04:05:21;;;;;;;64.85;32.88;;;10.20;99.90;;;;;;5073695;28;20067;-84
2021/12/15 04:07:49;;;;;;;74.72;34.95;;;10.20;99.90;;;;;;5039263;28;20025;-84
2021/12/15 04:10:17;;;;;;;66.32;33.67;;;10.20;99.90;;;;;;5056009;28;20480;-84
2021/12/15 04:12:44;;;;;;;68.40;34.25;;;10.20;99.90;;;;;;5055757;28;20111;-84
2021/12/15 04:17:50;;;;;;;71.60;33.75;;;10.10;99.90;;;;;;5073525;28;20056;-84
2021/12/15 04:20:19;;;;;;;69.50;34.10;;;10.10;99.90;;;;;;5055391;28;20103;-87
2021/12/15 04:22:46;;;;;;;78.65;36.70;;;10.10;99.90;;;;;;5055007;28;20036;-84
2021/12/15 04:25:15;;;;;;;65.97;33.47;;;10.10;99.90;;;;;;5055173;28;20393;-84
2021/12/15 04:28:01;;;;;;;62.20;31.80;;;10.10;99.90;;;;;;5073514;28;20493;-83
2021/12/15 04:30:29;;;;;;;87.15;36.30;;;10.10;99.90;;;;;;5072251;28;20031;-83
2021/12/15 04:32:57;;;;;;;74.38;34.92;;;10.10;99.90;;;;;;5055225;28;20032;-84
2021/12/15 04:35:22;;;;;;;65.03;33.08;;;10.10;99.90;;;;;;5055359;28;20492;-84
2021/12/15 04:37:51;;;;;;;74.10;35.33;;;10.10;99.90;;;;;;5038742;28;20028;-84
2021/12/15 04:40:19;;;;;;;71.00;32.83;;;10.10;99.90;;;;;;5055012;28;20030;-84
2021/12/15 04:42:45;;;;;;;67.70;32.17;;;10.20;99.90;;;;;;5072834;28;20102;-84
2021/12/15 04:45:14;;;;;;;82.45;34.70;;;10.20;99.90;;;;;;5055241;28;20021;-83
2021/12/15 04:47:39;;;;;;;78.30;34.88;;;10.20;99.90;;;;;;5055270;28;20066;-83
2021/12/15 04:50:07;;;;;;;76.63;34.83;;;10.20;99.90;;;;;;5055494;28;20032;-84
2021/12/15 04:52:33;;;;;;;69.38;33.75;;;10.20;99.90;;;;;;5054995;28;20055;-83
2021/12/15 04:55:02;;;;;;;76.50;34.00;;;10.20;99.90;;;;;;5038757;28;20028;-84
2021/12/15 04:57:28;;;;;;;71.82;34.03;;;10.20;99.90;;;;;;5055580;28;20111;-84
2021/12/15 04:59:55;;;;;;;71.50;34.40;;;10.20;99.90;;;;;;5073408;28;20104;-83
2021/12/15 05:02:21;;;;;;;74.05;33.15;;;10.20;99.90;;;;;;5055155;28;20040;-84
2021/12/15 05:04:49;;;;;;;74.90;35.13;;;10.20;99.90;;;;;;5038485;28;20032;-83
2021/12/15 05:07:16;;;;;;;74.32;34.53;;;10.20;99.90;;;;;;5073079;28;20457;-83
2021/12/15 05:09:44;;;;;;;71.13;33.15;;;10.20;99.90;;;;;;5055274;28;20060;-83
2021/12/15 05:12:11;;;;;;;71.88;34.67;;;10.20;99.90;;;;;;5073572;28;20024;-83
2021/12/15 05:14:36;;;;;;;72.70;32.95;;;10.20;99.90;;;;;;5055180;28;20483;-83
2021/12/15 05:17:03;;;;;;;80.20;34.30;;;10.20;99.90;;;;;;5055313;28;20021;-84
2021/12/15 05:19:29;;;;;;;77.60;35.55;;;10.20;99.90;;;;;;5072874;28;20106;-84
2021/12/15 05:21:57;;;;;;;71.00;34.03;;;10.20;99.90;;;;;;5073866;28;20029;-83
2021/12/15 05:24:30;;;;;;;74.70;35.83;;;10.20;99.90;;;;;;5071090;28;20055;-85
2021/12/15 05:27:09;;;;;;;59.42;31.58;;;10.20;99.90;;;;;;5064377;28;20050;-86
2021/12/15 05:29:36;;;;;;;75.68;35.60;;;10.20;99.90;;;;;;5078323;28;20025;-83
2021/12/15 05:32:03;;;;;;;70.18;32.83;;;10.20;99.90;;;;;;5059030;28;20530;-87
2021/12/15 05:34:28;;;;;;;63.97;32.03;;;10.20;99.90;;;;;;5074380;28;20064;-84
2021/12/15 05:36:55;;;;;;;66.78;34.38;;;10.20;99.90;;;;;;5090886;28;20032;-83
2021/12/15 05:39:22;;;;;;;72.07;34.65;;;10.20;99.90;;;;;;5044260;28;20032;-83
2021/12/15 05:41:49;;;;;;;80.60;35.85;;;10.20;99.90;;;;;;5059530;28;20491;-83
2021/12/15 05:44:15;;;;;;;73.38;36.00;;;10.20;99.90;;;;;;5058070;28;20044;-83
2021/12/15 05:46:41;;;;;;;78.25;35.65;;;10.20;99.90;;;;;;5058256;28;20029;-83
2021/12/15 05:49:07;;;;;;;67.13;34.03;;;10.20;99.90;;;;;;5058401;28;20036;-84
2021/12/15 05:51:34;;;;;;;70.97;33.70;;;10.30;99.90;;;;;;5058358;28;20480;-84
2021/12/15 05:54:00;;;;;;;73.95;35.05;;;10.30;99.90;;;;;;5041814;28;20417;-84
2021/12/15 05:56:26;;;;;;;77.00;35.97;;;10.30;99.90;;;;;;5076490;28;20110;-83
2021/12/15 05:58:52;;;;;;;74.43;35.65;;;10.30;99.90;;;;;;5075996;28;20377;-86
2021/12/15 06:01:18;;;;;;;74.78;34.28;;;10.20;99.90;;;;;;5057912;28;20483;-83
2021/12/15 06:03:44;;;;;;;75.35;34.53;;;10.30;99.90;;;;;;5075788;28;20040;-83
2021/12/15 06:06:11;;;;;;;69.85;35.13;;;10.30;99.90;;;;;;5057870;28;20028;-84
2021/12/15 06:08:37;;;;;;;72.15;33.45;;;10.30;99.90;;;;;;5075967;28;20090;-83
2021/12/15 06:11:04;;;;;;;75.25;35.35;;;10.30;99.90;;;;;;5058152;28;20036;-89
2021/12/15 06:13:30;;;;;;;78.03;34.72;;;10.30;99.90;;;;;;5041445;28;20052;-83
2021/12/15 06:15:57;;;;;;;72.93;35.40;;;10.30;99.90;;;;;;5076186;28;20099;-83
2021/12/15 06:18:24;;;;;;;71.65;34.85;;;10.30;99.90;;;;;;5057668;28;20034;-83
2021/12/15 06:20:53;;;;;;;69.82;33.30;;;10.30;99.90;;;;;;5041033;28;20716;-83
2021/12/15 06:23:21;;;;;;;72.88;33.97;;;10.30;99.90;;;;;;5057551;28;20033;-84
2021/12/15 06:25:57;;;;;;;73.38;35.40;;;10.30;99.90;;;;;;5091251;28;20055;-84
2021/12/15 06:28:25;;;;;;;69.85;34.88;;;10.20;99.90;;;;;;5057425;28;20094;-84
2021/12/15 06:30:51;;;;;;;78.68;35.42;;;10.30;99.90;;;;;;5041442;28;20017;-84
2021/12/15 06:33:17;;;;;;;78.28;36.10;;;10.30;99.90;;;;;;5058019;28;20028;-84
2021/12/15 06:35:53;;;;;;;82.63;36.50;;;10.30;99.90;;;;;;5075302;28;20432;-84
2021/12/15 06:38:22;;;;;;;73.10;35.65;;;10.30;99.90;;;;;;5075698;28;20028;-84
2021/12/15 06:40:48;;;;;;;83.50;36.53;;;10.30;99.90;;;;;;5057990;28;20017;-84
2021/12/15 06:43:14;;;;;;;83.40;35.97;;;10.30;99.90;;;;;;5075324;28;20433;-84
2021/12/15 06:45:54;;;;;;;78.15;35.20;;;10.30;99.90;;;;;;5041411;28;20044;-84
2021/12/15 06:59:18;;;;;;;75.15;34.97;;;10.30;99.90;;;;;;5060039;28;20090;-84
2021/12/15 07:01:46;;;;;;;75.40;35.60;;;10.30;99.90;;;;;;5057588;28;20029;-83
2021/12/15 07:04:12;;;;;;;78.50;35.42;;;10.30;99.90;;;;;;5062081;28;20544;-85
2021/12/15 07:06:38;;;;;;;79.38;34.95;;;10.30;99.90;;;;;;5075264;28;20021;-84
2021/12/15 07:09:04;;;;;;;76.75;33.90;;;10.30;99.90;;;;;;5040671;28;20384;-84
2021/12/15 07:11:30;;;;;;;78.53;35.20;;;10.30;99.90;;;;;;5040622;28;20082;-84
2021/12/15 07:13:55;;;;;;;79.32;36.15;;;10.30;99.90;;;;;;5057356;28;20111;-84
2021/12/15 07:16:21;;;;;;;75.93;34.60;;;10.30;99.90;;;;;;5057113;28;20031;-84
2021/12/15 07:19:05;;;;;;;80.00;35.25;;;10.30;99.90;;;;;;5075018;28;20028;-84
2021/12/15 07:21:36;;;;;;;75.57;34.75;;;10.30;99.90;;;;;;5042906;28;20024;-84
2021/12/15 07:24:02;;;;;;;78.28;35.33;;;10.30;99.90;;;;;;5057803;28;20029;-84
2021/12/15 07:26:28;;;;;;;82.00;35.08;;;10.40;99.90;;;;;;5074635;28;20044;-84
2021/12/15 07:28:54;;;;;;;79.10;34.42;;;10.40;99.90;;;;;;5040352;28;20392;-84
2021/12/15 07:31:20;;;;;;;87.60;36.50;;;10.40;99.90;;;;;;5056695;28;20050;-84
2021/12/15 07:33:46;;;;;;;87.60;37.22;;;10.40;99.90;;;;;;5040199;28;20469;-84
2021/12/15 07:36:13;;;;;;;96.18;37.35;;;10.40;99.90;;;;;;5040089;28;20035;-85
2021/12/15 07:38:43;;;;;;;81.57;36.38;;;10.40;99.90;;;;;;5040335;28;20048;-84
2021/12/15 07:41:36;;;;;;;85.97;35.70;;;10.40;99.90;;;;;;5090074;28;20036;-84
2021/12/15 07:44:04;;;;;;;95.65;36.00;;;10.40;99.90;;;;;;5067455;28;20138;-84
2021/12/15 07:46:31;;;;;;;89.25;36.15;;;10.40;99.90;;;;;;5076607;28;20519;-84
2021/12/15 07:48:57;;;;;;;87.85;37.08;;;10.40;99.90;;;;;;5076909;28;20063;-84
2021/12/15 07:51:22;;;;;;;87.75;35.53;;;10.40;99.90;;;;;;5061992;28;20016;-83
2021/12/15 07:53:48;;;;;;;95.90;36.65;;;10.40;99.90;;;;;;5094334;28;20028;-83
2021/12/15 07:56:15;;;;;;;92.57;36.83;;;10.40;99.90;;;;;;5034860;28;20430;-83
2021/12/15 07:58:41;;;;;;;98.90;37.45;;;10.40;99.90;;;;;;5051156;28;20024;-83
2021/12/15 08:01:07;;;;;;;104.47;38.50;;;10.40;99.90;;;;;;5071378;28;20028;-83
2021/12/15 08:03:36;;;;;;;89.75;36.20;;;10.40;99.90;;;;;;5074387;28;20027;-82
2021/12/15 08:06:02;;;;;;;102.00;37.17;;;10.40;99.90;;;;;;5084290;28;20031;-84
2021/12/15 08:08:28;;;;;;;105.05;38.97;;;10.40;99.90;;;;;;5089806;28;20119;-85
2021/12/15 08:10:56;;;;;;;110.82;38.33;;;10.40;99.90;;;;;;5042911;28;20118;-84
2021/12/15 08:13:24;;;;;;;101.82;39.72;;;10.40;99.90;;;;;;5060105;28;20354;-84
2021/12/15 08:15:49;;;;;;;99.72;38.63;;;10.40;99.90;;;;;;5076284;28;20436;-84
2021/12/15 08:18:15;;;;;;;127.03;39.60;;;10.40;99.90;;;;;;5075696;28;20024;-88
2021/12/15 08:20:41;;;;;;;98.85;37.53;;;10.40;99.90;;;;;;5042040;28;20453;-85
2021/12/15 08:23:08;;;;;;;99.63;38.83;;;10.40;99.90;;;;;;5058274;28;20074;-84
2021/12/15 08:25:35;;;;;;;105.28;39.13;;;10.40;99.90;;;;;;5074827;28;20028;-84
2021/12/15 08:28:01;;;;;;;100.93;36.03;;;10.50;99.90;;;;;;5072807;28;20028;-84
2021/12/15 08:30:30;;;;;;;109.53;38.90;;;10.50;99.90;;;;;;5072434;28;20059;-84
2021/12/15 08:32:59;;;;;;;123.65;41.15;;;10.50;99.90;;;;;;5074657;28;20058;-84
2021/12/15 08:35:29;;;;;;;110.85;39.78;;;10.50;99.90;;;;;;5057307;28;20025;-84
2021/12/15 08:37:55;;;;;;;114.95;39.92;;;10.50;99.90;;;;;;5075544;28;20020;-86
2021/12/15 08:44:06;;;;;;;115.97;39.63;;;10.50;99.90;;;;;;5073624;28;20550;-85
2021/12/15 08:46:38;;;;;;;105.72;38.92;;;10.50;99.90;;;;;;5091482;28;20341;-85
2021/12/15 08:49:24;;;;;;;109.82;40.78;;;10.50;99.90;;;;;;5059090;28;20016;-83
2021/12/15 08:51:51;;;;;;;103.50;37.13;;;10.50;99.90;;;;;;5075800;28;20039;-83
2021/12/15 08:54:19;;;;;;;98.68;37.10;;;10.50;99.90;;;;;;5075841;28;20047;-84
2021/12/15 08:56:45;;;;;;;107.10;40.25;;;10.50;99.90;;;;;;5075589;28;20062;-84
2021/12/15 08:59:12;;;;;;;105.25;38.83;;;10.50;99.90;;;;;;5075787;28;20468;-84
2021/12/15 09:01:39;;;;;;;111.55;38.85;;;10.40;99.90;;;;;;5059284;28;20569;-84
2021/12/15 09:04:05;;;;;;;106.78;38.30;;;10.50;99.90;;;;;;5059037;28;20036;-84
2021/12/15 09:06:32;;;;;;;101.90;38.42;;;10.50;99.90;;;;;;5066504;28;20460;-84
2021/12/15 09:08:57;;;;;;;110.00;39.25;;;10.50;99.90;;;;;;5095871;28;20020;-83
2021/12/15 09:11:27;;;;;;;107.30;39.38;;;10.50;99.90;;;;;;5099099;28;20043;-84
2021/12/15 09:13:56;;;;;;;117.90;41.45;;;10.50;99.90;;;;;;5116918;28;20103;-84
2021/12/15 09:16:23;;;;;;;116.78;40.00;;;10.50;99.90;;;;;;5119857;28;20007;-83
2021/12/15 09:18:50;;;;;;;101.45;38.42;;;10.60;99.90;;;;;;5104095;28;20036;-84
2021/12/15 09:21:20;;;;;;;113.45;40.65;;;10.60;99.90;;;;;;5112634;28;20020;-84
2021/12/15 09:23:46;;;;;;;125.43;41.70;;;10.60;99.90;;;;;;5084601;28;20027;-83
2021/12/15 09:26:12;;;;;;;123.15;40.97;;;10.60;99.90;;;;;;5080322;28;20395;-83
2021/12/15 09:28:38;;;;;;;106.13;39.55;;;10.60;99.90;;;;;;5063065;28;20028;-84
2021/12/15 09:31:07;;;;;;;108.63;39.17;;;10.60;99.90;;;;;;5063715;28;20376;-83
2021/12/15 09:33:36;;;;;;;109.78;40.53;;;10.60;99.90;;;;;;5082725;28;20024;-83
2021/12/15 09:36:04;;;;;;;103.72;39.55;;;10.60;99.90;;;;;;5082370;28;20028;-84
2021/12/15 09:38:31;;;;;;;116.78;41.15;;;10.60;99.90;;;;;;5063674;28;20067;-84
2021/12/15 09:40:59;;;;;;;90.97;37.22;;;10.60;99.90;;;;;;5062838;28;20047;-84
2021/12/15 09:43:27;;;;;;;102.45;39.30;;;10.60;99.90;;;;;;5097033;28;20139;-84
2021/12/15 09:46:05;;;;;;;97.97;39.85;;;10.60;99.90;;;;;;5096962;28;20021;-85
2021/12/15 10:02:29;;;;;;;104.10;40.80;;;10.70;99.90;;;;;;5097160;28;20078;-84
2021/12/15 10:19:34;;;;;;;95.57;38.90;;;10.70;99.90;;;;;;5097550;28;20046;-83
2021/12/15 10:25:49;;;;;;;99.60;39.03;;;10.80;99.90;;;;;;5096532;28;20043;-83
2021/12/15 10:31:37;;;;;;;87.20;37.35;;;10.80;99.90;;;;;;5096327;28;20388;-84
2021/12/15 10:34:05;;;;;;;84.20;38.53;;;10.80;99.90;;;;;;5078132;28;20024;-83
2021/12/15 10:36:34;;;;;;;84.53;38.35;;;10.80;99.90;;;;;;5079114;28;20094;-83
2021/12/15 10:39:05;;;;;;;85.80;38.03;;;10.90;99.90;;;;;;5078273;28;20051;-83
2021/12/15 10:41:37;;;;;;;90.65;38.55;;;10.80;99.90;;;;;;5096707;28;20024;-83
2021/12/15 10:44:07;;;;;;;77.35;38.28;;;10.90;99.90;;;;;;5077431;28;20044;-83
2021/12/15 10:47:11;;;;;;;90.28;40.15;;;10.90;99.90;;;;;;5096519;28;20047;-83
2021/12/15 10:49:42;;;;;;;84.20;37.88;;;10.90;99.90;;;;;;5095884;28;20052;-83
2021/12/15 10:52:09;;;;;;;;;;;10.90;99.90;;;;;;5077860;28;20502;-85
2021/12/15 10:54:50;;;;;;;87.05;36.72;;;10.90;99.90;;;;;;5075598;28;19908;-84
2021/12/15 10:57:21;;;;;;;77.80;38.83;;;10.90;99.90;;;;;;5075003;28;20020;-83
2021/12/15 10:59:51;;;;;;;;;;;10.90;99.90;;;;;;5078338;28;20020;-84
2021/12/15 11:02:37;;;;;;;79.88;38.35;;;10.90;99.90;;;;;;5075917;28;19913;-84
2021/12/15 11:08:26;;;;;;;72.50;36.33;;;11.00;99.90;;;;;;5075187;28;20435;-84
2021/12/15 11:14:29;;;;;;;83.22;37.08;;;11.00;99.90;;;;;;5075643;28;20070;-88
2021/12/15 11:17:20;;;;;;;79.40;38.65;;;11.10;99.90;;;;;;5057657;28;20083;-85
2021/12/15 11:19:53;;;;;;;;;;;11.10;99.90;;;;;;5057900;28;20048;-86
2021/12/15 11:22:39;;;;;;;80.07;37.13;;;11.10;99.90;;;;;;5057234;28;20328;-85
2021/12/15 11:25:27;;;;;;;72.63;37.60;;;11.10;99.90;;;;;;5057083;28;20025;-85
2021/12/15 11:28:17;;;;;;;71.95;37.78;;;11.10;99.90;;;;;;5068167;28;20102;-84
2021/12/15 11:34:05;;;;;;;66.47;36.72;;;11.10;99.90;;;;;;5095364;28;20538;-85
2021/12/15 11:36:42;;;;;;;66.90;36.75;;;11.20;99.90;;;;;;5060331;28;20126;-84
2021/12/15 11:39:15;;;;;;;62.50;37.30;;;11.10;99.90;;;;;;5095042;28;20024;-85
2021/12/15 11:41:50;;;;;;;65.38;36.45;;;11.20;99.90;;;;;;5094881;28;20106;-86
2021/12/15 11:44:21;;;;;;;62.20;36.45;;;11.20;99.90;;;;;;5064688;28;20075;-84
2021/12/15 11:47:08;;;;;;;;;;;11.20;99.90;;;;;;5065259;28;20054;-84
2021/12/15 11:49:37;;;;;;;63.42;34.92;;;11.20;99.90;;;;;;5076422;28;20302;-84
2021/12/15 11:52:14;;;;;;;59.72;34.95;;;11.20;99.90;;;;;;5083529;28;20019;-84
2021/12/15 11:54:49;;;;;;;56.38;32.80;;;11.20;99.90;;;;;;5076298;28;20028;-85
2021/12/15 11:57:24;;;;;;;59.17;34.83;;;11.30;99.90;;;;;;5076542;28;20020;-84
2021/12/15 11:59:56;;;;;;;56.78;35.05;;;11.30;99.90;;;;;;5075697;28;20078;-84
2021/12/15 12:02:52;;;;;;;58.17;34.00;;;11.30;99.90;;;;;;5086782;28;20024;-84
2021/12/15 12:05:29;;;;;;;62.17;36.33;;;11.30;99.90;;;;;;5074485;28;20025;-84
2021/12/15 12:08:00;;;;;;;61.05;35.05;;;11.30;99.90;;;;;;5095935;28;20024;-84
2021/12/15 12:10:45;;;;;;;60.28;34.92;;;11.30;99.90;;;;;;5059587;28;20017;-86
2021/12/15 12:13:22;;;;;;;57.22;33.83;;;11.30;99.90;;;;;;5096170;28;20644;-84
2021/12/15 12:15:50;;;;;;;60.08;34.80;;;11.30;99.90;;;;;;5075365;28;20111;-85
2021/12/15 12:18:23;;;;;;;52.83;33.35;;;11.30;99.90;;;;;;5058378;28;20464;-85
2021/12/15 12:20:53;;;;;;;55.45;33.45;;;11.40;99.90;;;;;;5091907;28;20058;-86
2021/12/15 12:23:22;;;;;;;54.47;34.97;;;11.40;99.90;;;;;;5073656;28;20109;-85
2021/12/15 12:25:54;;;;;;;55.80;32.88;;;11.40;99.90;;;;;;5072378;28;20115;-85
2021/12/15 12:28:23;;;;;;;49.50;32.00;;;11.40;99.90;;;;;;5056990;28;20020;-85
2021/12/15 12:30:53;;;;;;;51.08;32.45;;;11.40;99.90;;;;;;5068331;28;20020;-87
2021/12/15 12:33:21;;;;;;;53.92;33.83;;;11.40;99.90;;;;;;5075047;28;20077;-86
2021/12/15 12:35:53;;;;;;;52.50;31.45;;;11.50;99.90;;;;;;5084246;28;20021;-85
2021/12/15 12:38:26;;;;;;;53.15;34.30;;;11.40;99.90;;;;;;5090991;28;20016;-83
2021/12/15 12:40:56;;;;;;;47.33;30.20;;;11.50;99.90;;;;;;5066430;28;20016;-85
2021/12/15 12:43:29;;;;;;;50.03;31.38;;;11.50;99.90;;;;;;5072353;28;20040;-89
2021/12/15 12:46:08;;;;;;;47.38;29.77;;;11.50;99.90;;;;;;5074646;28;20116;-85
2021/12/15 12:49:14;;;;;;;45.15;29.83;;;11.60;99.90;;;;;;5093643;28;20053;-87
2021/12/15 13:00:43;;;;;;;39.50;27.77;;;11.60;99.90;;;;;;5107163;28;20085;-83
2021/12/15 13:03:20;;;;;;;45.58;28.23;;;11.60;99.90;;;;;;5088876;28;20036;-84
2021/12/15 13:06:00;;;;;;;42.78;28.08;;;11.60;99.90;;;;;;5102511;28;20026;-85
2021/12/15 13:08:29;;;;;;;43.50;29.65;;;11.60;99.90;;;;;;5097472;28;20494;-83
2021/12/15 13:10:55;;;;;;;39.83;27.70;;;11.60;99.90;;;;;;5095015;28;20055;-84
2021/12/15 13:13:23;;;;;;;39.42;28.10;;;11.70;99.90;;;;;;5095209;28;20062;-84
2021/12/15 13:16:08;;;;;;;41.45;27.77;;;11.70;99.90;;;;;;5078935;28;20070;-85
2021/12/15 13:18:53;;;;;;;39.88;27.77;;;11.60;99.90;;;;;;5075115;28;20016;-84
2021/12/15 13:21:22;;;;;;;39.78;28.70;;;11.70;99.90;;;;;;5093135;28;20020;-84
2021/12/15 13:23:53;;;;;;;40.97;28.48;;;11.70;99.90;;;;;;5092452;28;20059;-84
2021/12/15 13:29:23;;;;;;;46.10;28.27;;;11.70;99.90;;;;;;5085454;28;19992;-84
2021/12/15 13:32:01;;;;;;;41.55;28.60;;;11.70;99.90;;;;;;5055223;28;20030;-85
2021/12/15 13:34:35;;;;;;;42.67;28.27;;;11.70;99.90;;;;;;5077438;28;20027;-85
2021/12/15 13:37:02;;;;;;;40.95;28.30;;;11.70;99.90;;;;;;5092709;28;20536;-84
2021/12/15 13:39:46;;;;;;;39.30;26.77;;;11.70;99.90;;;;;;5094041;28;20039;-84
2021/12/15 13:42:15;;;;;;;40.60;27.55;;;11.70;99.90;;;;;;5081668;28;20474;-84
2021/12/15 13:44:47;;;;;;;37.28;25.65;;;11.70;99.90;;;;;;5100387;28;20048;-94
2021/12/15 13:47:20;;;;;;;36.88;25.85;;;11.70;99.90;;;;;;5096262;28;20046;-84
2021/12/15 13:49:54;;;;;;;36.78;26.35;;;11.70;99.90;;;;;;5071716;28;20024;-84
2021/12/15 13:52:39;;;;;;;34.45;24.83;;;11.70;99.90;;;;;;5057912;28;20024;-85
2021/12/15 13:55:10;;;;;;;33.38;24.58;;;11.70;99.90;;;;;;5056284;28;20366;-85
2021/12/15 13:57:50;;;;;;;;;;;11.70;99.90;;;;;;5091497;28;20046;-85
2021/12/15 14:00:28;;;;;;;30.20;21.27;;;11.70;99.90;;;;;;5092228;28;19991;-84
2021/12/15 14:03:17;;;;;;;31.13;21.40;;;11.70;99.90;;;;;;5073194;28;20106;-85
2021/12/15 14:05:48;;;;;;;29.02;20.67;;;11.70;99.90;;;;;;5077634;28;20024;-85
2021/12/15 14:08:33;;;;;;;30.73;20.55;;;11.70;99.90;;;;;;5095839;28;20027;-84
2021/12/15 14:11:04;;;;;;;31.17;20.10;;;11.70;99.90;;;;;;5074941;28;20028;-85
2021/12/15 14:13:52;;;;;;;27.33;19.30;;;11.70;99.90;;;;;;5074425;28;20028;-84
2021/12/15 14:16:33;;;;;;;29.25;18.75;;;11.70;99.90;;;;;;5061360;28;20016;-84
2021/12/15 14:19:00;;;;;;;;;;;11.70;99.90;;;;;;5095772;28;20070;-84
2021/12/15 14:21:27;;;;;;;25.50;17.63;;;11.70;99.90;;;;;;5057048;28;19912;-84
2021/12/15 14:23:56;;;;;;;26.25;16.67;;;11.70;99.90;;;;;;5043588;28;20481;-84
2021/12/15 14:26:27;;;;;;;22.73;17.05;;;11.60;99.90;;;;;;5060667;28;20051;-84
2021/12/15 14:28:56;;;;;;;26.73;18.17;;;11.60;99.90;;;;;;5062871;28;20032;-84
2021/12/15 14:31:29;;;;;;;25.52;18.25;;;11.60;99.90;;;;;;5074146;28;20016;-84